TONO2: Salt Fork Arkansas R., Tonkawa, OK

                                SHEF ID:       TONO2     Salt Fork Arkansas River at Tonk
STATION TYPE:
Regulating: Stage = 17.00, Flow = 10937

PRECIP STAGE STAGE(2) RIV-FLOW BAT-LOAD
in ft ft cfs volt
Ccp-Rev Ccp-Rev Ccp-Rev Ccp-Rev Ccp-Rev
(America/Chicago)
03/29 00:00 0.00 3.81 ---- 242 12.73
03/29 01:00 0.00 3.78 ---- 231 12.73
03/29 02:00 0.00 3.77 ---- 227 12.65
03/29 03:00 0.00 3.72 ---- 210 12.65
03/29 04:00 0.00 3.69 ---- 200 12.65
03/29 05:00 0.00 3.66 ---- 190 12.65
03/29 06:00 0.00 3.64 ---- 183 12.65
03/29 07:00 0.00 3.62 ---- 177 12.57
03/29 08:00 0.00 3.60 ---- 171 12.57
03/29 09:00 0.00 3.56 ---- 159 13.29
03/29 10:00 0.00 3.57 ---- 162 13.76
03/29 11:00 0.00 3.54 ---- 153 13.76
03/29 12:00 0.00 3.52 ---- 148 13.68
03/29 13:00 0.00 3.51 ---- 145 13.44
03/29 14:00 0.00 3.49 ---- 139 13.53
03/29 15:00 0.00 3.49 ---- 139 13.44
03/29 16:00 0.00 3.50 ---- 142 13.21
03/29 17:00 0.00 3.48 ---- 137 13.21
03/29 18:00 0.00 3.48 ---- 137 13.21
03/29 19:00 0.00 3.44 ---- 126 13.13
03/29 20:00 0.00 3.42 ---- 121 12.97
03/29 21:00 0.00 3.41 ---- 119 12.81
03/29 22:00 0.00 3.41 ---- 119 12.81
03/29 23:00 0.00 3.42 ---- 121 12.73
Data processed at Mon 30Mar2026 04:36 GMT

NOTICE: If you are parsing this page

Please convert to using our Data API. Starting early 2026 we will be migrating to: https://water.usace.army.mil with modern pages rendered in JavaScript. When this migration completes you will no longer be able to scrape this page! CWMSDataAPI (CDA)

Timeseries IDs (TSIDs)

TSIDs used from left to right in the data table
TONK.Precip-Inc.Total.1Hour.1Hour.Ccp-Rev
TONK.Stage.Inst.1Hour.0.Ccp-Rev
TONK.Stage-Alt.Inst.1Hour.0.Ccp-Rev
TONK.Flow.Inst.1Hour.0.Ccp-Rev
TONK.Volt-Battery Load.Inst.1Hour.0.Ccp-Rev

                            

All information presented herein is the property of the government of the United States of America and may be revised or deleted at any time without prior notice. Dissemination of this information without the expressed written consent of the Public Affairs Office, Tulsa District U.S. Army Corps of Engineers is strictly prohibited. These data are gathered electronically and, as presented, have NOT undergone any form of quality control. These data are NOT guaranteed to be valid or correct.